Time;durP1;ratioP1;P1;durP2;ratioP2;P2;SDS_P1;SDS_P2;PMS_P1;PMS_P2;Temp;Humidity;BMP_temperature;BMP_pressure;BME280_temperature;BME280_humidity;BME280_pressure;Samples;Min_cycle;Max_cycle;Signal;HPM_P1;HPM_P2
2021/12/05 00:21:43;;;;;;;;;;;22.40;46.60;;;;;;5097944;28;19915;-62
2021/12/05 00:24:14;;;;;;;;;;;22.40;46.60;;;;;;5098077;28;19924;-62
2021/12/05 00:26:40;;;;;;;;;;;22.40;46.60;;;;;;5098318;28;19912;-61
2021/12/05 00:47:14;;;;;;;;;;;22.40;46.50;;;;;;5094920;28;19963;-61
2021/12/05 00:50:07;;;;;;;;;;;22.40;46.50;;;;;;5094675;28;20439;-62
2021/12/05 00:53:12;;;;;;;;;;;22.40;46.40;;;;;;5094119;28;19922;-62
2021/12/05 01:00:47;;;;;;;;;;;22.40;46.40;;;;;;5094502;28;19909;-61
2021/12/05 01:08:59;;;;;;;;;;;22.30;46.40;;;;;;5094663;28;19962;-61
2021/12/05 01:14:34;;;;;;;;;;;22.30;46.40;;;;;;5094687;28;19965;-62
2021/12/05 01:16:57;;;;;;;;;;;22.30;46.40;;;;;;5093455;28;20360;-60
2021/12/05 01:19:26;;;;;;;;;;;22.30;46.30;;;;;;5094137;28;20322;-61
2021/12/05 01:21:57;;;;;;;;;;;22.30;46.30;;;;;;5093391;28;19915;-59
2021/12/05 01:24:43;;;;;;;;;;;22.30;46.30;;;;;;5094279;28;19916;-61
2021/12/05 01:27:17;;;;;;;;;;;22.30;46.30;;;;;;5094151;28;19950;-60
2021/12/05 01:35:06;;;;;;;;;;;22.20;46.20;;;;;;5093603;28;19908;-61
2021/12/05 01:37:57;;;;;;;;;;;22.20;46.20;;;;;;5093720;28;20334;-61
2021/12/05 01:43:54;;;;;;;;;;;22.20;46.20;;;;;;5094104;28;19953;-62
2021/12/05 02:29:40;;;;;;;;;;;22.10;46.10;;;;;;5030200;28;19924;-60
2021/12/05 02:40:06;;;;;;;;;;;22.00;46.00;;;;;;5050163;28;19909;-62
2021/12/05 02:42:34;;;;;;;;;;;22.00;46.00;;;;;;5050089;28;19953;-65
2021/12/05 02:45:02;;;;;;;;;;;21.90;46.00;;;;;;5049962;28;19991;-60
2021/12/05 02:47:29;;;;;;;;;;;21.90;46.00;;;;;;5049484;28;19909;-63
2021/12/05 02:49:57;;;;;;;;;;;22.00;46.00;;;;;;5049945;28;20374;-60
2021/12/05 02:52:32;;;;;;;;;;;21.90;46.00;;;;;;5049964;28;20385;-61
2021/12/05 02:55:01;;;;;;;;;;;22.00;46.00;;;;;;5049882;28;19913;-61
2021/12/05 03:00:12;;;;;;;;;;;21.90;46.00;;;;;;5066096;28;19909;-60
2021/12/05 03:02:41;;;;;;;;;;;21.90;46.00;;;;;;5092107;28;19908;-62
2021/12/05 03:05:11;;;;;;;;;;;21.90;46.00;;;;;;5091837;28;19909;-62
2021/12/05 03:07:40;;;;;;;;;;;21.90;46.00;;;;;;5092242;28;19931;-61
2021/12/05 03:10:07;;;;;;;;;;;21.90;46.00;;;;;;5091957;28;19947;-62
2021/12/05 03:12:35;;;;;;;;;;;21.90;45.90;;;;;;5092159;28;19908;-63
2021/12/05 03:15:02;;;;;;;;;;;21.90;45.90;;;;;;5092275;28;19934;-61
2021/12/05 03:17:27;;;;;;;;;;;21.90;46.00;;;;;;5091353;28;19916;-61
2021/12/05 03:19:53;;;;;;;;;;;21.80;45.90;;;;;;5092032;28;19954;-61
2021/12/05 03:22:18;;;;;;;;;;;21.80;45.90;;;;;;5091766;28;19927;-61
2021/12/05 03:24:44;;;;;;;;;;;21.80;45.90;;;;;;5091993;28;19908;-61
2021/12/05 03:27:10;;;;;;;;;;;21.80;45.90;;;;;;5091963;28;20003;-61
2021/12/05 03:29:35;;;;;;;;;;;21.80;45.90;;;;;;5091983;28;19951;-62
2021/12/05 03:32:01;;;;;;;;;;;21.80;45.90;;;;;;5091410;28;19909;-62
2021/12/05 03:34:26;;;;;;;;;;;21.80;45.80;;;;;;5091976;28;19908;-61
2021/12/05 03:36:55;;;;;;;;;;;21.70;45.80;;;;;;5091825;28;20383;-59
2021/12/05 03:39:20;;;;;;;;;;;21.80;45.90;;;;;;5091770;28;19912;-61
2021/12/05 03:41:46;;;;;;;;;;;21.70;45.80;;;;;;5091836;28;19915;-61
2021/12/05 03:44:15;;;;;;;;;;;21.70;45.80;;;;;;5092171;28;19908;-62
2021/12/05 03:46:40;;;;;;;;;;;21.70;45.80;;;;;;5091551;28;19912;-60
2021/12/05 03:49:08;;;;;;;;;;;21.70;45.80;;;;;;5091663;28;20024;-61
2021/12/05 03:51:35;;;;;;;;;;;21.70;45.80;;;;;;5091616;28;19909;-62
2021/12/05 03:54:00;;;;;;;;;;;21.60;45.70;;;;;;5091627;28;19995;-63
2021/12/05 03:56:26;;;;;;;;;;;21.70;45.80;;;;;;5091544;28;20006;-61
2021/12/05 03:58:52;;;;;;;;;;;21.70;45.80;;;;;;5091735;28;20376;-61
2021/12/05 04:01:18;;;;;;;;;;;21.70;45.70;;;;;;5091077;28;20360;-61
2021/12/05 04:03:45;;;;;;;;;;;21.70;45.70;;;;;;5091629;28;19908;-60
2021/12/05 04:06:12;;;;;;;;;;;21.60;45.70;;;;;;5091519;28;20394;-61
2021/12/05 04:08:41;;;;;;;;;;;21.60;45.70;;;;;;5091513;28;19909;-62
2021/12/05 04:11:10;;;;;;;;;;;21.60;45.70;;;;;;5091544;28;19915;-61
2021/12/05 04:13:36;;;;;;;;;;;21.60;45.70;;;;;;5091042;28;19915;-62
2021/12/05 04:16:03;;;;;;;;;;;21.60;45.70;;;;;;5092692;28;19908;-61
2021/12/05 04:18:28;;;;;;;;;;;21.60;45.70;;;;;;5095264;28;19916;-61
2021/12/05 04:20:54;;;;;;;;;;;21.60;45.70;;;;;;5095303;28;20404;-62
2021/12/05 04:23:20;;;;;;;;;;;21.60;45.70;;;;;;5095191;28;20308;-61
2021/12/05 04:25:48;;;;;;;;;;;21.50;45.60;;;;;;5076980;28;20364;-61
2021/12/05 04:28:14;;;;;;;;;;;21.50;45.70;;;;;;5094629;28;19908;-62
2021/12/05 04:30:39;;;;;;;;;;;21.50;45.70;;;;;;5095151;28;19918;-62
2021/12/05 04:33:05;;;;;;;;;;;21.50;45.70;;;;;;5095067;28;19912;-61
2021/12/05 04:35:30;;;;;;;;;;;21.50;45.70;;;;;;5094950;28;19908;-61
2021/12/05 04:37:56;;;;;;;;;;;21.50;45.70;;;;;;5094885;28;19939;-61
2021/12/05 04:40:21;;;;;;;;;;;21.50;45.70;;;;;;5094872;28;19962;-61
2021/12/05 04:42:47;;;;;;;;;;;21.50;45.70;;;;;;5094371;28;19914;-61
2021/12/05 04:45:15;;;;;;;;;;;21.50;45.70;;;;;;5094877;28;19908;-61
2021/12/05 04:47:40;;;;;;;;;;;21.50;45.70;;;;;;5094687;28;20395;-61
2021/12/05 04:50:06;;;;;;;;;;;21.50;45.70;;;;;;5094689;28;19909;-62
2021/12/05 04:52:32;;;;;;;;;;;21.50;45.70;;;;;;5094843;28;20288;-62
2021/12/05 04:54:58;;;;;;;;;;;21.40;45.60;;;;;;5094894;28;19915;-60
2021/12/05 04:57:23;;;;;;;;;;;21.40;45.60;;;;;;5093961;28;19966;-62
2021/12/05 04:59:50;;;;;;;;;;;21.40;45.60;;;;;;5094572;28;19908;-62
2021/12/05 05:02:16;;;;;;;;;;;21.40;45.60;;;;;;5094474;28;20357;-61
2021/12/05 05:04:45;;;;;;;;;;;21.40;45.60;;;;;;5094379;28;19908;-62
2021/12/05 05:07:17;;;;;;;;;;;21.40;45.60;;;;;;5094384;28;20390;-60
2021/12/05 05:09:43;;;;;;;;;;;21.40;45.60;;;;;;5094490;28;19983;-62
2021/12/05 05:12:08;;;;;;;;;;;21.40;45.60;;;;;;5093865;28;20396;-61
2021/12/05 05:14:34;;;;;;;;;;;21.40;45.60;;;;;;5094284;28;19912;-61
2021/12/05 05:16:59;;;;;;;;;;;21.40;45.60;;;;;;5094161;28;20379;-61
2021/12/05 05:19:33;;;;;;;;;;;21.40;45.60;;;;;;5094147;28;20011;-62
2021/12/05 05:22:16;;;;;;;;;;;21.30;45.60;;;;;;5093927;28;20394;-61
2021/12/05 05:28:02;;;;;;;;;;;21.30;45.50;;;;;;5093550;28;19961;-62
2021/12/05 05:44:04;;;;;;;;;;;21.20;45.50;;;;;;5093915;28;19908;-61
2021/12/05 05:49:24;;;;;;;;;;;21.20;45.50;;;;;;5093914;28;19909;-61
2021/12/05 05:51:50;;;;;;;;;;;21.20;45.50;;;;;;5093586;28;19947;-62
2021/12/05 05:54:16;;;;;;;;;;;21.20;45.50;;;;;;5093472;28;20288;-60
2021/12/05 05:56:46;;;;;;;;;;;21.20;45.40;;;;;;5092787;28;19908;-61
2021/12/05 05:59:23;;;;;;;;;;;21.20;45.50;;;;;;5093717;28;19908;-62
2021/12/05 06:04:14;;;;;;;;;;;21.10;45.40;;;;;;5093338;28;20284;-62
2021/12/05 06:06:40;;;;;;;;;;;21.10;45.40;;;;;;5093170;28;20257;-62
2021/12/05 06:09:05;;;;;;;;;;;21.10;45.40;;;;;;5075035;28;19912;-62
2021/12/05 06:11:30;;;;;;;;;;;21.10;45.40;;;;;;5092601;28;19908;-61
2021/12/05 06:13:56;;;;;;;;;;;21.10;45.40;;;;;;5093046;28;19912;-61
2021/12/05 06:16:21;;;;;;;;;;;21.10;45.40;;;;;;5093155;28;20250;-61
2021/12/05 06:18:47;;;;;;;;;;;21.10;45.40;;;;;;5092921;28;19919;-60
2021/12/05 06:21:13;;;;;;;;;;;21.10;45.40;;;;;;5092866;28;19935;-61
2021/12/05 06:23:39;;;;;;;;;;;21.10;45.40;;;;;;5092774;28;20287;-60
2021/12/05 06:26:07;;;;;;;;;;;21.10;45.40;;;;;;5092376;28;19975;-61
2021/12/05 06:31:15;;;;;;;;;;;21.00;45.40;;;;;;5093069;28;19927;-61
2021/12/05 06:37:14;;;;;;;;;;;21.00;45.40;;;;;;5092686;28;19954;-62
2021/12/05 06:46:58;;;;;;;;;;;21.00;45.40;;;;;;5092729;28;19915;-61
2021/12/05 06:49:23;;;;;;;;;;;21.00;45.40;;;;;;5092711;28;19908;-61
2021/12/05 06:51:49;;;;;;;;;;;21.00;45.40;;;;;;5092405;28;20014;-61
2021/12/05 06:54:14;;;;;;;;;;;20.90;45.30;;;;;;5091881;28;19915;-61
2021/12/05 06:56:40;;;;;;;;;;;20.90;45.30;;;;;;5092270;28;19919;-61
2021/12/05 06:59:05;;;;;;;;;;;20.90;45.30;;;;;;5092320;28;19961;-61
2021/12/05 07:01:30;;;;;;;;;;;20.90;45.40;;;;;;5092234;28;19909;-60
2021/12/05 07:04:02;;;;;;;;;;;20.90;45.40;;;;;;5092252;28;20280;-60
2021/12/05 07:06:29;;;;;;;;;;;20.90;45.30;;;;;;5092400;28;19908;-62
2021/12/05 07:09:04;;;;;;;;;;;20.90;45.30;;;;;;5091688;28;19908;-61
2021/12/05 07:11:47;;;;;;;;;;;20.90;45.40;;;;;;5092241;28;19912;-61
2021/12/05 07:19:44;;;;;;;;;;;20.80;45.30;;;;;;5092076;28;20057;-60
2021/12/05 07:22:22;;;;;;;;;;;20.80;45.30;;;;;;5091159;28;20002;-62
2021/12/05 07:24:52;;;;;;;;;;;20.80;45.30;;;;;;5092057;28;19908;-60
2021/12/05 07:43:49;;;;;;;;;;;20.80;45.30;;;;;;5092244;28;19914;-61
2021/12/05 07:46:14;;;;;;;;;;;20.70;45.30;;;;;;5091815;28;19908;-62
2021/12/05 07:48:43;;;;;;;;;;;20.70;45.30;;;;;;5091783;28;19935;-61
2021/12/05 07:51:20;;;;;;;;;;;20.70;45.30;;;;;;5094422;28;19908;-62
2021/12/05 07:53:53;;;;;;;;;;;20.70;45.30;;;;;;5095927;28;19908;-60
2021/12/05 07:56:29;;;;;;;;;;;20.70;45.20;;;;;;5095870;28;19999;-60
2021/12/05 08:15:29;;;;;;;;;;;20.60;45.50;;;;;;5095522;28;20375;-59
2021/12/05 08:17:57;;;;;;;;;;;20.60;45.60;;;;;;5095253;28;20288;-60
2021/12/05 08:20:27;;;;;;;;;;;20.60;45.60;;;;;;5094808;28;19995;-61
2021/12/05 08:22:53;;;;;;;;;;;20.60;45.60;;;;;;5095060;28;19920;-60
2021/12/05 08:25:21;;;;;;;;;;;20.70;45.70;;;;;;5095179;28;19931;-58
2021/12/05 08:27:51;;;;;;;;;;;20.70;45.60;;;;;;5095212;28;19915;-56
2021/12/05 08:30:26;;;;;;;;;;;20.70;45.60;;;;;;5095161;28;19939;-56
2021/12/05 09:08:47;;;;;;;;;;;21.00;46.20;;;;;;5094844;28;20417;-59
2021/12/05 09:20:28;;;;;;;;;;;21.00;46.20;;;;;;5094729;28;19961;-59
2021/12/05 09:22:45;;;;;;;;;;;21.00;46.20;;;;;;5094243;28;20356;-60
2021/12/05 09:30:13;;;;;;;;;;;21.10;46.30;;;;;;5094185;28;19908;-57
2021/12/05 10:02:43;;;;;;;;;;;21.10;46.50;;;;;;5093208;28;19961;-60
2021/12/05 12:04:24;;;;;;;;;;;19.20;45.40;;;;;;5089805;28;19919;-58
2021/12/05 12:07:08;;;;;;;;;;;19.20;46.70;;;;;;5089456;28;19913;-59
2021/12/05 12:09:33;;;;;;;;;;;19.30;47.60;;;;;;5089414;28;19948;-59
2021/12/05 12:11:59;;;;;;;;;;;19.50;48.10;;;;;;5089322;28;19912;-57
2021/12/05 12:14:27;;;;;;;;;;;19.70;48.30;;;;;;5088805;28;19953;-59
2021/12/05 12:16:53;;;;;;;;;;;19.80;48.40;;;;;;5089331;28;20371;-61
2021/12/05 12:19:22;;;;;;;;;;;20.00;48.50;;;;;;5089269;28;19908;-60
2021/12/05 12:21:49;;;;;;;;;;;20.20;48.60;;;;;;5089276;28;20225;-60
2021/12/05 12:24:15;;;;;;;;;;;20.30;48.60;;;;;;5089043;28;19921;-60
2021/12/05 12:26:41;;;;;;;;;;;20.40;48.60;;;;;;5088701;28;19908;-60
2021/12/05 12:29:09;;;;;;;;;;;20.50;48.70;;;;;;5089043;28;19916;-58
2021/12/05 12:31:36;;;;;;;;;;;20.60;48.70;;;;;;5088991;28;19970;-57
2021/12/05 12:34:04;;;;;;;;;;;20.70;48.70;;;;;;5089072;28;19908;-58
2021/12/05 12:36:31;;;;;;;;;;;20.80;48.70;;;;;;5088916;28;19909;-58
2021/12/05 12:38:56;;;;;;;;;;;20.90;48.70;;;;;;5088772;28;19908;-59
2021/12/05 12:41:23;;;;;;;;;;;21.00;48.80;;;;;;5087021;28;19931;-59
2021/12/05 12:43:53;;;;;;;;;;;21.00;48.80;;;;;;5088802;28;20295;-61
2021/12/05 12:46:40;;;;;;;;;;;21.10;48.80;;;;;;5088754;28;19908;-61
2021/12/05 12:49:22;;;;;;;;;;;21.20;48.80;;;;;;5087384;28;20394;-61
2021/12/05 12:51:47;;;;;;;;;;;21.20;48.70;;;;;;5088726;28;19908;-62
2021/12/05 12:54:15;;;;;;;;;;;21.30;48.70;;;;;;5088533;28;19920;-62
2021/12/05 12:56:42;;;;;;;;;;;21.30;48.70;;;;;;5088175;28;19909;-62
2021/12/05 12:59:10;;;;;;;;;;;21.30;48.60;;;;;;5088565;28;19947;-62
2021/12/05 13:12:31;;;;;;;;;;;21.40;48.40;;;;;;5108285;28;20387;-62
2021/12/05 13:15:09;;;;;;;;;;;21.40;48.30;;;;;;5099507;28;19908;-61
2021/12/05 13:17:43;;;;;;;;;;;21.40;48.30;;;;;;5094865;28;20404;-62
2021/12/05 13:20:10;;;;;;;;;;;21.30;48.20;;;;;;5094834;28;20318;-62
2021/12/05 13:23:14;;;;;;;;;;;21.30;48.20;;;;;;5094819;28;19908;-62
2021/12/05 13:25:58;;;;;;;;;;;21.30;48.20;;;;;;5031921;28;19909;-62
2021/12/05 13:28:31;;;;;;;;;;;21.30;48.20;;;;;;5032297;28;19913;-62
2021/12/05 13:30:58;;;;;;;;;;;21.40;48.20;;;;;;5032264;28;20385;-62
2021/12/05 13:33:25;;;;;;;;;;;21.30;48.10;;;;;;5015595;28;19921;-62
2021/12/05 13:35:57;;;;;;;;;;;21.30;48.10;;;;;;5032152;28;19910;-63
2021/12/05 13:38:39;;;;;;;;;;;21.30;48.10;;;;;;5032178;28;20397;-63
2021/12/05 13:41:10;;;;;;;;;;;21.30;48.10;;;;;;5031518;28;19909;-62
2021/12/05 13:43:36;;;;;;;;;;;21.30;48.10;;;;;;5031973;28;20374;-62
2021/12/05 13:46:03;;;;;;;;;;;21.30;48.10;;;;;;5032067;28;19918;-61
2021/12/05 13:48:29;;;;;;;;;;;21.30;48.10;;;;;;5031913;28;19992;-62
2021/12/05 13:50:56;;;;;;;;;;;21.30;48.10;;;;;;5031863;28;19944;-61
2021/12/05 13:53:23;;;;;;;;;;;21.30;48.10;;;;;;5031758;28;19917;-62
2021/12/05 13:56:02;;;;;;;;;;;21.30;48.10;;;;;;5047367;28;20273;-61
2021/12/05 13:58:38;;;;;;;;;;;21.40;48.10;;;;;;5094289;28;19959;-62
2021/12/05 14:01:21;;;;;;;;;;;21.40;48.10;;;;;;5094154;28;19912;-61
2021/12/05 14:03:52;;;;;;;;;;;21.40;48.10;;;;;;5093832;28;19920;-61
2021/12/05 14:06:36;;;;;;;;;;;21.30;48.10;;;;;;5093910;28;19908;-62
2021/12/05 14:09:01;;;;;;;;;;;21.40;48.10;;;;;;5093488;28;19908;-59
2021/12/05 14:11:27;;;;;;;;;;;21.40;48.10;;;;;;5094079;28;19915;-62
2021/12/05 14:13:53;;;;;;;;;;;21.40;48.10;;;;;;5093729;28;19916;-60
2021/12/05 14:16:19;;;;;;;;;;;21.40;48.10;;;;;;5093767;28;19908;-59
2021/12/05 14:18:45;;;;;;;;;;;21.40;48.10;;;;;;5093646;28;19908;-62
2021/12/05 14:21:11;;;;;;;;;;;21.50;48.20;;;;;;5093632;28;20375;-61
2021/12/05 14:23:36;;;;;;;;;;;21.40;48.10;;;;;;5093036;28;19916;-62
2021/12/05 14:26:18;;;;;;;;;;;21.50;48.10;;;;;;5092868;28;19908;-61
2021/12/05 14:28:53;;;;;;;;;;;21.50;48.10;;;;;;5093481;28;19909;-60
2021/12/05 14:31:28;;;;;;;;;;;21.50;48.10;;;;;;5093462;28;19909;-61
2021/12/05 14:33:54;;;;;;;;;;;21.50;48.10;;;;;;5093459;28;19920;-62
2021/12/05 14:36:21;;;;;;;;;;;21.50;48.10;;;;;;5093256;28;19908;-60
2021/12/05 14:38:46;;;;;;;;;;;21.50;48.00;;;;;;5092814;28;19912;-61
2021/12/05 14:41:12;;;;;;;;;;;21.50;48.00;;;;;;5093295;28;19931;-62
2021/12/05 14:43:37;;;;;;;;;;;21.50;48.00;;;;;;5093245;28;19941;-62
2021/12/05 14:46:03;;;;;;;;;;;21.50;48.00;;;;;;5093173;28;20376;-62
2021/12/05 14:48:30;;;;;;;;;;;21.60;48.10;;;;;;5093391;28;20245;-62
2021/12/05 14:50:57;;;;;;;;;;;21.50;48.00;;;;;;5093304;28;19908;-62
2021/12/05 14:53:24;;;;;;;;;;;21.60;48.00;;;;;;5092501;28;19917;-61
2021/12/05 14:55:56;;;;;;;;;;;21.60;48.00;;;;;;5093058;28;20379;-61
2021/12/05 14:58:22;;;;;;;;;;;21.50;47.90;;;;;;5092940;28;19971;-62
2021/12/05 15:00:50;;;;;;;;;;;21.60;48.00;;;;;;5093133;28;19946;-61
2021/12/05 15:03:17;;;;;;;;;;;21.60;48.00;;;;;;5092970;28;19920;-62
2021/12/05 15:05:44;;;;;;;;;;;21.60;47.90;;;;;;5092796;28;19923;-61
2021/12/05 15:08:12;;;;;;;;;;;21.60;48.00;;;;;;5092374;28;19912;-60
2021/12/05 15:10:38;;;;;;;;;;;21.60;47.90;;;;;;5092654;28;19959;-62
2021/12/05 15:13:04;;;;;;;;;;;21.60;47.90;;;;;;5092483;28;19974;-61
2021/12/05 15:15:30;;;;;;;;;;;21.60;47.90;;;;;;5092698;28;19932;-63
2021/12/05 15:17:56;;;;;;;;;;;21.60;47.90;;;;;;5092517;28;19924;-60
2021/12/05 15:20:23;;;;;;;;;;;21.60;47.90;;;;;;5092662;28;19998;-61
2021/12/05 15:22:51;;;;;;;;;;;21.60;47.80;;;;;;5091985;28;19912;-61
2021/12/05 15:25:18;;;;;;;;;;;21.60;47.80;;;;;;5092474;28;19908;-63
2021/12/05 15:27:44;;;;;;;;;;;21.60;47.80;;;;;;5092347;28;19916;-62
2021/12/05 15:30:12;;;;;;;;;;;21.60;47.80;;;;;;5092426;28;19912;-62
2021/12/05 15:32:38;;;;;;;;;;;21.60;47.80;;;;;;5092419;28;19916;-62
2021/12/05 15:35:08;;;;;;;;;;;21.70;47.90;;;;;;5074148;28;19935;-60
2021/12/05 15:37:34;;;;;;;;;;;21.70;47.90;;;;;;5092350;28;19915;-61
2021/12/05 15:40:02;;;;;;;;;;;21.70;47.90;;;;;;5092191;28;19908;-60
2021/12/05 15:42:29;;;;;;;;;;;21.70;47.80;;;;;;5092394;28;19908;-61
2021/12/05 15:44:56;;;;;;;;;;;21.70;47.90;;;;;;5092184;28;19908;-60
2021/12/05 15:47:25;;;;;;;;;;;21.70;47.90;;;;;;5092275;28;20352;-61
2021/12/05 15:49:50;;;;;;;;;;;21.70;47.80;;;;;;5091701;28;19914;-62
2021/12/05 15:52:17;;;;;;;;;;;21.70;47.90;;;;;;5092060;28;19998;-62
2021/12/05 15:54:43;;;;;;;;;;;21.70;47.80;;;;;;5091988;28;19908;-61
2021/12/05 15:57:14;;;;;;;;;;;21.70;47.80;;;;;;5091987;28;20304;-61
2021/12/05 15:59:42;;;;;;;;;;;21.70;47.80;;;;;;5092180;28;19908;-60
2021/12/05 16:02:11;;;;;;;;;;;21.70;47.80;;;;;;5091880;28;19908;-61
2021/12/05 16:04:38;;;;;;;;;;;21.70;47.80;;;;;;5091418;28;19909;-61
2021/12/05 16:07:10;;;;;;;;;;;21.70;47.80;;;;;;5073789;28;19973;-64
2021/12/05 16:09:36;;;;;;;;;;;21.80;47.80;;;;;;5091983;28;19961;-62
2021/12/05 16:12:20;;;;;;;;;;;21.70;48.40;;;;;;5091812;28;19912;-64
2021/12/05 16:14:48;;;;;;;;;;;21.70;47.80;;;;;;5091955;28;20306;-63
2021/12/05 16:17:27;;;;;;;;;;;21.80;47.90;;;;;;5091920;28;19919;-62
2021/12/05 16:20:10;;;;;;;;;;;21.80;48.00;;;;;;5091283;28;19947;-62
2021/12/05 16:22:54;;;;;;;;;;;21.80;48.00;;;;;;5091780;28;19995;-63
2021/12/05 16:25:20;;;;;;;;;;;21.80;48.10;;;;;;5091847;28;19908;-63
2021/12/05 16:27:50;;;;;;;;;;;21.80;48.20;;;;;;5091768;28;19908;-60
2021/12/05 16:30:21;;;;;;;;;;;21.90;48.30;;;;;;5091702;28;19914;-59
2021/12/05 16:32:46;;;;;;;;;;;21.90;48.40;;;;;;5073536;28;20283;-59
2021/12/05 16:35:22;;;;;;;;;;;21.90;48.60;;;;;;5091182;28;19908;-59
2021/12/05 16:37:48;;;;;;;;;;;21.90;48.70;;;;;;5090715;28;19908;-59
2021/12/05 16:40:14;;;;;;;;;;;22.00;48.80;;;;;;5069265;28;19940;-60
2021/12/05 16:42:39;;;;;;;;;;;22.00;48.90;;;;;;5068678;28;19934;-59
2021/12/05 16:45:05;;;;;;;;;;;22.00;48.90;;;;;;5068670;28;19928;-60
2021/12/05 16:47:31;;;;;;;;;;;22.00;49.00;;;;;;5068744;28;20031;-60
2021/12/05 16:49:58;;;;;;;;;;;22.00;49.70;;;;;;5069722;28;20202;-60
2021/12/05 16:52:28;;;;;;;;;;;22.00;49.10;;;;;;5072285;28;19925;-59
2021/12/05 16:54:57;;;;;;;;;;;22.00;49.10;;;;;;5072261;28;19924;-60
2021/12/05 16:57:29;;;;;;;;;;;22.00;49.10;;;;;;5072188;28;19913;-59
2021/12/05 16:59:55;;;;;;;;;;;22.10;49.20;;;;;;5072470;28;19912;-61
2021/12/05 17:02:24;;;;;;;;;;;22.10;49.30;;;;;;5071848;28;19916;-60
2021/12/05 17:05:03;;;;;;;;;;;22.10;49.30;;;;;;5072317;28;20035;-59
2021/12/05 17:07:49;;;;;;;;;;;22.10;49.30;;;;;;5072072;28;19920;-60
2021/12/05 17:10:21;;;;;;;;;;;22.10;49.40;;;;;;5072099;28;19912;-60
2021/12/05 17:12:50;;;;;;;;;;;22.10;49.40;;;;;;5072035;28;19942;-59
2021/12/05 17:15:19;;;;;;;;;;;22.20;49.50;;;;;;5072026;28;19909;-60
2021/12/05 17:17:45;;;;;;;;;;;22.10;49.40;;;;;;5071483;28;19916;-60
2021/12/05 17:20:37;;;;;;;;;;;22.10;49.50;;;;;;5071915;28;19958;-59
2021/12/05 17:23:07;;;;;;;;;;;22.20;49.50;;;;;;5070563;28;19913;-61
2021/12/05 17:25:35;;;;;;;;;;;22.20;49.50;;;;;;5072133;28;19917;-59
2021/12/05 17:28:03;;;;;;;;;;;22.20;49.50;;;;;;5068144;28;20444;-59
2021/12/05 17:30:28;;;;;;;;;;;22.20;49.50;;;;;;5093145;28;19991;-58
2021/12/05 17:32:54;;;;;;;;;;;22.20;49.50;;;;;;5092990;28;20007;-59
2021/12/05 17:35:19;;;;;;;;;;;22.20;49.50;;;;;;5094584;28;19934;-59
2021/12/05 17:37:45;;;;;;;;;;;22.20;49.50;;;;;;5093947;28;19962;-58
2021/12/05 17:40:12;;;;;;;;;;;22.20;49.50;;;;;;5094480;28;19991;-59
2021/12/05 17:42:39;;;;;;;;;;;22.20;49.50;;;;;;5094451;28;19909;-60
2021/12/05 17:45:06;;;;;;;;;;;22.20;49.50;;;;;;5094235;28;19909;-60
2021/12/05 17:47:32;;;;;;;;;;;22.20;49.50;;;;;;5093836;28;20356;-60
2021/12/05 17:49:58;;;;;;;;;;;22.20;49.50;;;;;;5094336;28;19933;-68
2021/12/05 17:52:25;;;;;;;;;;;22.20;49.50;;;;;;5094176;28;19912;-61
2021/12/05 17:55:01;;;;;;;;;;;22.20;49.60;;;;;;5094126;28;19915;-61
2021/12/05 17:58:21;;;;;;;;;;;22.20;49.60;;;;;;5094161;28;19962;-61
2021/12/05 18:00:35;;;;;;;;;;;22.20;49.60;;;;;;5084960;28;20003;-60
2021/12/05 18:03:02;;;;;;;;;;;22.20;49.60;;;;;;5093847;28;20364;-59
2021/12/05 18:05:30;;;;;;;;;;;22.20;49.50;;;;;;5093947;28;19908;-60
2021/12/05 18:07:57;;;;;;;;;;;22.20;49.50;;;;;;5093845;28;20249;-60
2021/12/05 18:10:27;;;;;;;;;;;22.20;49.50;;;;;;5093877;28;19991;-61
2021/12/05 18:12:56;;;;;;;;;;;22.20;49.50;;;;;;5093707;28;19952;-61
2021/12/05 18:15:27;;;;;;;;;;;22.20;49.50;;;;;;5093398;28;19908;-61
2021/12/05 18:17:53;;;;;;;;;;;22.20;49.50;;;;;;5093901;28;19953;-61
2021/12/05 18:20:22;;;;;;;;;;;22.20;49.50;;;;;;5093688;28;19912;-61
2021/12/05 18:22:47;;;;;;;;;;;22.20;49.50;;;;;;5094158;28;19908;-61
2021/12/05 18:25:13;;;;;;;;;;;22.20;49.50;;;;;;5093672;28;19912;-62
2021/12/05 18:27:40;;;;;;;;;;;22.20;49.50;;;;;;5093724;28;19959;-61
2021/12/05 18:30:06;;;;;;;;;;;22.20;49.50;;;;;;5093032;28;19908;-61
2021/12/05 18:32:33;;;;;;;;;;;22.20;49.50;;;;;;5093452;28;19920;-61
2021/12/05 18:34:59;;;;;;;;;;;22.20;49.50;;;;;;5093492;28;19977;-61
2021/12/05 18:37:25;;;;;;;;;;;22.20;49.50;;;;;;5093410;28;20356;-61
2021/12/05 18:39:51;;;;;;;;;;;22.20;49.50;;;;;;5093306;28;20280;-61
2021/12/05 18:42:18;;;;;;;;;;;22.20;49.50;;;;;;5093302;28;20048;-61
2021/12/05 18:44:49;;;;;;;;;;;22.20;49.50;;;;;;5092761;28;19912;-61
2021/12/05 18:47:15;;;;;;;;;;;22.20;49.50;;;;;;5093218;28;19951;-60
2021/12/05 18:49:42;;;;;;;;;;;22.20;49.40;;;;;;5093087;28;19908;-60
2021/12/05 18:52:07;;;;;;;;;;;22.20;49.50;;;;;;5092959;28;19991;-61
2021/12/05 18:54:35;;;;;;;;;;;22.20;49.40;;;;;;5093026;28;20011;-61
2021/12/05 18:57:01;;;;;;;;;;;22.20;49.40;;;;;;5093024;28;19908;-60
2021/12/05 18:59:28;;;;;;;;;;;22.20;49.40;;;;;;5092461;28;19908;-61
2021/12/05 19:04:42;;;;;;;;;;;22.20;49.40;;;;;;5093228;28;19931;-61
2021/12/05 19:07:16;;;;;;;;;;;22.20;49.40;;;;;;5092755;28;19908;-61
2021/12/05 19:11:42;;;;;;;;;;;22.20;49.40;;;;;;5092882;28;19914;-60
2021/12/05 19:12:28;;;;;;;;;;;22.20;49.30;;;;;;5091883;28;19913;-60
2021/12/05 19:14:56;;;;;;;;;;;22.20;49.30;;;;;;5092116;28;20457;-59
2021/12/05 19:17:24;;;;;;;;;;;22.20;49.30;;;;;;5092605;28;19908;-61
2021/12/05 19:19:50;;;;;;;;;;;22.20;49.30;;;;;;5092200;28;19945;-60
2021/12/05 19:22:21;;;;;;;;;;;22.20;49.20;;;;;;5090027;28;19953;-60
2021/12/05 19:24:47;;;;;;;;;;;22.20;49.10;;;;;;5091236;28;20253;-61
2021/12/05 19:27:15;;;;;;;;;;;22.20;49.10;;;;;;5089456;28;20413;-61
2021/12/05 19:29:42;;;;;;;;;;;22.20;49.10;;;;;;5091679;28;19977;-61
2021/12/05 19:32:08;;;;;;;;;;;22.20;49.00;;;;;;5092142;28;19939;-62
2021/12/05 19:34:34;;;;;;;;;;;22.20;49.00;;;;;;5090268;28;19981;-59
2021/12/05 19:37:00;;;;;;;;;;;22.10;48.90;;;;;;5091999;28;19908;-61
2021/12/05 19:39:27;;;;;;;;;;;22.10;48.90;;;;;;5109333;28;19915;-60
2021/12/05 19:41:53;;;;;;;;;;;22.10;48.90;;;;;;5071443;28;19954;-59
2021/12/05 19:44:19;;;;;;;;;;;22.10;48.90;;;;;;5096435;28;19956;-61
2021/12/05 19:46:46;;;;;;;;;;;22.10;48.80;;;;;;5092228;28;19989;-60
2021/12/05 19:49:11;;;;;;;;;;;22.10;48.80;;;;;;5105958;28;20431;-60
2021/12/05 19:51:37;;;;;;;;;;;22.10;48.80;;;;;;5112440;28;19951;-60
2021/12/05 19:54:03;;;;;;;;;;;22.10;48.80;;;;;;5112423;28;19994;-61
2021/12/05 19:56:29;;;;;;;;;;;22.10;48.80;;;;;;5111863;28;20014;-61
2021/12/05 19:58:55;;;;;;;;;;;22.10;48.80;;;;;;5111224;28;19951;-61
2021/12/05 20:01:20;;;;;;;;;;;22.10;48.70;;;;;;5112074;28;19912;-61
2021/12/05 20:03:46;;;;;;;;;;;22.10;48.70;;;;;;5112121;28;19920;-61
2021/12/05 20:06:13;;;;;;;;;;;22.10;48.70;;;;;;5112200;28;19958;-60
2021/12/05 20:08:38;;;;;;;;;;;22.10;48.70;;;;;;5112265;28;20351;-61
2021/12/05 20:11:05;;;;;;;;;;;22.10;48.70;;;;;;5086191;28;19994;-61
2021/12/05 20:13:30;;;;;;;;;;;22.10;48.70;;;;;;5090855;28;19920;-60
2021/12/05 20:15:56;;;;;;;;;;;22.10;48.70;;;;;;5085706;28;20000;-60
2021/12/05 20:18:22;;;;;;;;;;;22.10;48.70;;;;;;5088394;28;20322;-60
2021/12/05 20:20:48;;;;;;;;;;;22.10;48.60;;;;;;5084428;28;19909;-59
2021/12/05 20:23:16;;;;;;;;;;;22.10;48.60;;;;;;5088809;28;19923;-61
2021/12/05 20:25:41;;;;;;;;;;;22.10;49.20;;;;;;5091200;28;20000;-61
2021/12/05 20:28:07;;;;;;;;;;;22.10;48.60;;;;;;5093013;28;19999;-60
2021/12/05 20:33:12;;;;;;;;;;;22.10;48.50;;;;;;5051238;28;19935;-61
2021/12/05 20:35:38;;;;;;;;;;;22.10;48.60;;;;;;5053002;28;19999;-61
2021/12/05 20:38:04;;;;;;;;;;;22.20;48.60;;;;;;5052606;28;19982;-61
2021/12/05 20:40:31;;;;;;;;;;;22.10;48.50;;;;;;5051911;28;19913;-61
2021/12/05 20:42:57;;;;;;;;;;;22.10;48.50;;;;;;5052247;28;19913;-62
2021/12/05 20:45:23;;;;;;;;;;;22.10;48.50;;;;;;5052609;28;19967;-62
2021/12/05 20:47:49;;;;;;;;;;;22.10;48.50;;;;;;5052569;28;19967;-61
2021/12/05 20:50:15;;;;;;;;;;;22.10;48.40;;;;;;5052443;28;19982;-61
2021/12/05 20:52:41;;;;;;;;;;;22.10;48.40;;;;;;5052655;28;19917;-61
2021/12/05 20:55:08;;;;;;;;;;;22.10;48.40;;;;;;5042138;28;19975;-60
2021/12/05 20:57:33;;;;;;;;;;;22.20;48.40;;;;;;5032711;28;19909;-61
2021/12/05 20:59:59;;;;;;;;;;;22.10;48.40;;;;;;5031746;28;20413;-62
2021/12/05 21:02:24;;;;;;;;;;;22.10;48.40;;;;;;5044456;28;19909;-62
2021/12/05 21:04:50;;;;;;;;;;;22.10;48.30;;;;;;5052074;28;19909;-62
2021/12/05 21:07:18;;;;;;;;;;;22.20;48.40;;;;;;5054786;28;20381;-62
2021/12/05 21:09:43;;;;;;;;;;;22.10;48.30;;;;;;5053886;28;20416;-62